Time;durP1;ratioP1;P1;durP2;ratioP2;P2;SDS_P1;SDS_P2;PMS_P1;PMS_P2;Temp;Humidity;BMP_temperature;BMP_pressure;BME280_temperature;BME280_humidity;BME280_pressure;Samples;Min_cycle;Max_cycle;Signal;HPM_P1;HPM_P2
2023/12/20 00:01:39;;;;;;;29.23;5.30;;;;;;;4.42;100.00;101503.41;5093469;28;20486;-90
2023/12/20 00:04:05;;;;;;;29.30;4.97;;;;;;;4.35;100.00;101506.72;5093143;28;20395;-89
2023/12/20 00:06:34;;;;;;;26.15;4.07;;;;;;;4.31;100.00;101502.69;5093328;28;20479;-90
2023/12/20 00:09:10;;;;;;;29.55;4.18;;;;;;;4.25;100.00;101499.75;5094024;28;20472;-90
2023/12/20 00:11:35;;;;;;;24.95;4.20;;;;;;;4.21;100.00;101515.38;5093323;28;20123;-89
2023/12/20 00:14:00;;;;;;;35.70;4.30;;;;;;;4.18;100.00;101507.63;5092766;28;20162;-90
2023/12/20 00:16:26;;;;;;;32.40;4.43;;;;;;;4.14;100.00;101517.00;5092947;28;20032;-89
2023/12/20 00:18:52;;;;;;;24.33;3.97;;;;;;;4.10;100.00;101518.28;5092512;28;20024;-89
2023/12/20 00:21:17;;;;;;;27.98;3.83;;;;;;;4.10;100.00;101520.97;5092557;28;20024;-89
2023/12/20 00:23:43;;;;;;;31.53;5.03;;;;;;;4.10;100.00;101510.25;5092821;28;20051;-89
2023/12/20 00:26:10;;;;;;;25.80;3.33;;;;;;;4.06;100.00;101512.41;5093088;28;20119;-89
2023/12/20 00:28:36;;;;;;;32.85;3.58;;;;;;;4.00;100.00;101504.94;5092642;28;20115;-89
2023/12/20 00:31:04;;;;;;;30.97;4.10;;;;;;;3.97;100.00;101510.63;5092464;28;20190;-89
2023/12/20 00:33:29;;;;;;;25.42;3.28;;;;;;;3.91;100.00;101511.25;5093373;28;20491;-89
2023/12/20 00:35:55;;;;;;;29.13;4.27;;;;;;;3.88;100.00;101501.66;5093264;28;20032;-89
2023/12/20 00:38:20;;;;;;;34.13;3.55;;;;;;;3.89;100.00;101508.75;5076048;28;20472;-89
2023/12/20 00:40:49;;;;;;;18.63;2.40;;;;;;;3.89;100.00;101506.06;5093249;28;20535;-89
2023/12/20 00:43:22;;;;;;;24.45;3.15;;;;;;;3.84;100.00;101505.69;5076327;28;20028;-89
2023/12/20 00:45:50;;;;;;;24.10;2.90;;;;;;;3.79;100.00;101489.19;5092778;28;20093;-89
2023/12/20 00:48:17;;;;;;;22.80;2.65;;;;;;;3.78;100.00;101495.53;5092548;28;20294;-90
2023/12/20 00:50:45;;;;;;;28.88;3.00;;;;;;;3.75;100.00;101496.72;5092583;28;20032;-90
2023/12/20 00:53:10;;;;;;;26.23;2.97;;;;;;;3.78;100.00;101498.22;5092677;28;20034;-91
2023/12/20 00:55:38;;;;;;;19.97;3.60;;;;;;;3.80;100.00;101493.56;5092196;28;20391;-90
2023/12/20 00:58:04;;;;;;;27.02;2.67;;;;;;;3.81;100.00;101492.53;5092310;28;20028;-90
2023/12/20 01:00:32;;;;;;;26.53;2.87;;;;;;;3.80;100.00;101485.50;5092139;28;20387;-90
2023/12/20 01:02:58;;;;;;;24.33;2.60;;;;;;;3.78;100.00;101493.72;5075397;28;20033;-90
2023/12/20 01:05:24;;;;;;;23.73;2.37;;;;;;;3.77;100.00;101496.56;5092647;28;20360;-89
2023/12/20 01:07:49;;;;;;;29.77;2.92;;;;;;;3.74;100.00;101492.34;5092331;28;20020;-90
2023/12/20 01:10:15;;;;;;;23.83;2.50;;;;;;;3.73;100.00;101489.81;5093663;28;20032;-90
2023/12/20 01:12:43;;;;;;;34.80;2.97;;;;;;;3.74;100.00;101496.88;5092015;28;20032;-89
2023/12/20 01:15:09;;;;;;;20.13;2.53;;;;;;;3.76;100.00;101494.88;5092127;28;20024;-90
2023/12/20 01:17:38;;;;;;;24.35;2.90;;;;;;;3.80;100.00;101494.41;5093286;28;20081;-90
2023/12/20 01:20:03;;;;;;;19.20;2.58;;;;;;;3.81;100.00;101508.66;5092410;28;20062;-90
2023/12/20 01:22:31;;;;;;;19.33;2.43;;;;;;;3.78;100.00;101501.78;5092145;28;20472;-90
2023/12/20 01:24:57;;;;;;;26.45;2.70;;;;;;;3.77;100.00;101499.25;5092794;28;20041;-90
2023/12/20 01:27:22;;;;;;;28.13;2.43;;;;;;;3.79;100.00;101500.75;5093161;28;20035;-90
2023/12/20 01:29:48;;;;;;;25.23;2.45;;;;;;;3.77;100.00;101508.13;5075890;28;20387;-90
2023/12/20 01:32:13;;;;;;;30.77;2.80;;;;;;;3.78;100.00;101508.97;5095002;28;20036;-89
2023/12/20 01:34:41;;;;;;;25.03;2.37;;;;;;;3.77;100.00;101518.88;5097684;28;20056;-90
2023/12/20 01:37:06;;;;;;;25.20;2.90;;;;;;;3.74;100.00;101512.97;5098010;28;20035;-89
2023/12/20 01:39:32;;;;;;;19.17;2.40;;;;;;;3.73;100.00;101514.81;5096915;28;20020;-90
2023/12/20 01:41:57;;;;;;;27.73;2.80;;;;;;;3.72;100.00;101512.28;5079929;28;20032;-90
2023/12/20 01:44:23;;;;;;;27.73;3.30;;;;;;;3.74;100.00;101504.94;5096491;28;20036;-89
2023/12/20 01:46:51;;;;;;;22.30;3.00;;;;;;;3.74;100.00;101511.13;5096310;28;20031;-89
2023/12/20 01:49:16;;;;;;;26.65;3.78;;;;;;;3.72;100.00;101501.53;5096555;28;20036;-89
2023/12/20 01:51:43;;;;;;;23.57;3.00;;;;;;;3.71;100.00;101508.75;5079451;28;20043;-89
2023/12/20 01:54:12;;;;;;;34.63;3.63;;;;;;;3.73;100.00;101504.06;5079897;28;20105;-89
2023/12/20 01:56:39;;;;;;;34.53;4.05;;;;;;;3.72;100.00;101510.44;5096187;28;20460;-90
2023/12/20 01:59:04;;;;;;;23.33;3.38;;;;;;;3.70;100.00;101515.13;5097154;28;20035;-90
2023/12/20 02:01:30;;;;;;;30.50;3.30;;;;;;;3.69;100.00;101506.22;5096348;28;20396;-89
2023/12/20 02:03:56;;;;;;;30.55;3.30;;;;;;;3.71;100.00;101500.69;5095879;28;20150;-89
2023/12/20 02:06:23;;;;;;;28.20;3.60;;;;;;;3.66;100.00;101514.59;5079035;28;20036;-90
2023/12/20 02:08:50;;;;;;;23.08;4.43;;;;;;;3.65;100.00;101509.38;5097795;28;20088;-90
2023/12/20 02:11:16;;;;;;;28.80;3.88;;;;;;;3.68;100.00;101506.38;5096890;28;20487;-90
2023/12/20 02:13:41;;;;;;;36.53;4.07;;;;;;;3.68;100.00;101515.28;5095438;28;20028;-90
2023/12/20 02:16:07;;;;;;;28.10;3.63;;;;;;;3.70;100.00;101515.13;5078894;28;20036;-90
2023/12/20 02:18:33;;;;;;;24.23;3.55;;;;;;;3.73;100.00;101501.38;5096855;28;20397;-90
2023/12/20 02:21:01;;;;;;;23.23;3.63;;;;;;;3.74;100.00;101505.75;5112307;28;20036;-89
2023/12/20 02:23:29;;;;;;;26.92;3.65;;;;;;;3.76;100.00;101519.03;5095637;28;20029;-90
2023/12/20 02:25:55;;;;;;;29.23;3.85;;;;;;;3.76;100.00;101514.50;5095369;28;20455;-89
2023/12/20 02:28:23;;;;;;;23.77;3.83;;;;;;;3.74;100.00;101518.34;5094591;28;20035;-90
2023/12/20 02:30:49;;;;;;;23.98;3.80;;;;;;;3.72;100.00;101507.78;5095085;28;20406;-91
2023/12/20 02:33:17;;;;;;;27.90;4.10;;;;;;;3.71;100.00;101494.50;5094531;28;20508;-90
2023/12/20 02:35:43;;;;;;;26.90;3.33;;;;;;;3.69;100.00;101492.81;5096689;28;20052;-90
2023/12/20 02:38:08;;;;;;;32.43;3.93;;;;;;;3.68;100.00;101496.47;5094800;28;20035;-90
2023/12/20 02:40:34;;;;;;;36.80;4.70;;;;;;;3.66;100.00;101503.84;5094552;28;20463;-90
2023/12/20 02:43:02;;;;;;;23.13;3.97;;;;;;;3.68;100.00;101509.06;5094120;28;20024;-90
2023/12/20 02:45:28;;;;;;;27.53;3.70;;;;;;;3.71;100.00;101499.88;5095060;28;20024;-90
2023/12/20 02:47:53;;;;;;;29.95;4.00;;;;;;;3.75;100.00;101502.09;5096073;28;20361;-90
2023/12/20 02:50:19;;;;;;;38.03;4.27;;;;;;;3.78;100.00;101498.22;5094447;28;20031;-90
2023/12/20 02:52:47;;;;;;;25.97;4.07;;;;;;;3.77;100.00;101494.72;5094587;28;20031;-90
2023/12/20 02:55:13;;;;;;;31.13;4.22;;;;;;;3.81;100.00;101501.47;5095236;28;20057;-90
2023/12/20 02:57:41;;;;;;;43.17;4.47;;;;;;;3.83;100.00;101510.19;5077891;28;20403;-90
2023/12/20 03:00:11;;;;;;;37.30;4.35;;;;;;;3.79;100.00;101500.75;5094218;28;20313;-90
2023/12/20 03:02:36;;;;;;;32.22;4.05;;;;;;;3.74;100.00;101497.72;5094418;28;20032;-90
2023/12/20 03:05:05;;;;;;;27.80;3.95;;;;;;;3.72;100.00;101491.66;5094860;28;20028;-90
2023/12/20 03:07:31;;;;;;;35.80;3.72;;;;;;;3.71;100.00;101494.50;5094404;28;20483;-90
2023/12/20 03:09:56;;;;;;;25.40;3.95;;;;;;;3.67;100.00;101491.28;5094500;28;20125;-90
2023/12/20 03:12:24;;;;;;;31.27;3.53;;;;;;;3.65;100.00;101496.78;5094144;28;20109;-90
2023/12/20 03:14:51;;;;;;;33.72;3.97;;;;;;;3.66;100.00;101474.34;5078170;28;20028;-90
2023/12/20 03:17:19;;;;;;;33.80;3.92;;;;;;;3.65;100.00;101496.78;5077883;28;20062;-91
2023/12/20 03:19:45;;;;;;;32.00;4.03;;;;;;;3.63;100.00;101480.00;5094132;28;20055;-90
2023/12/20 03:22:12;;;;;;;30.40;4.40;;;;;;;3.65;100.00;101479.84;5095141;28;20761;-91
2023/12/20 03:24:38;;;;;;;33.65;3.78;;;;;;;3.67;100.00;101480.53;5093909;28;20107;-90
2023/12/20 03:27:04;;;;;;;39.13;4.10;;;;;;;3.67;100.00;101489.41;5093953;28;20066;-90
2023/12/20 03:29:31;;;;;;;25.53;4.13;;;;;;;3.68;100.00;101477.69;5094406;28;20502;-89
2023/12/20 03:32:02;;;;;;;27.00;5.20;;;;;;;3.73;100.00;101477.22;5093836;28;20038;-90
2023/12/20 03:34:29;;;;;;;35.22;4.45;;;;;;;3.83;100.00;101477.16;5093882;28;20139;-90
2023/12/20 03:36:54;;;;;;;37.45;4.30;;;;;;;3.84;100.00;101482.34;5094691;28;20039;-90
2023/12/20 03:39:27;;;;;;;28.57;4.00;;;;;;;3.86;100.00;101472.28;5076981;28;20037;-90
2023/12/20 03:41:53;;;;;;;40.50;5.80;;;;;;;3.89;100.00;101465.78;5094618;28;20036;-90
2023/12/20 03:44:18;;;;;;;28.13;4.70;;;;;;;3.92;100.00;101468.16;5093310;28;20480;-90
2023/12/20 03:46:49;;;;;;;42.43;5.30;;;;;;;3.94;100.00;101468.84;5094068;28;20035;-90
2023/12/20 03:49:16;;;;;;;42.30;5.32;;;;;;;3.99;100.00;101457.63;5093759;28;20052;-90
2023/12/20 03:51:42;;;;;;;39.60;6.60;;;;;;;4.00;100.00;101467.34;5093232;28;20472;-90
2023/12/20 03:54:10;;;;;;;39.95;5.40;;;;;;;4.03;100.00;101459.84;5092650;28;20035;-90
2023/12/20 03:56:36;;;;;;;38.00;5.28;;;;;;;4.10;100.00;101470.78;5093469;28;20115;-90
2023/12/20 03:59:01;;;;;;;35.92;5.07;;;;;;;4.13;100.00;101470.47;5093319;28;20036;-91
2023/12/20 04:01:27;;;;;;;46.57;5.40;;;;;;;4.15;100.00;101473.88;5094429;28;20441;-90
2023/12/20 04:03:52;;;;;;;44.60;5.97;;;;;;;4.18;100.00;101475.41;5094246;28;20466;-91
2023/12/20 04:06:18;;;;;;;29.75;5.38;;;;;;;4.22;100.00;101471.38;5094038;28;20733;-90
2023/12/20 04:08:43;;;;;;;42.27;6.70;;;;;;;4.27;100.00;101474.44;5093241;28;20028;-90
2023/12/20 04:11:09;;;;;;;56.80;6.23;;;;;;;4.30;100.00;101468.75;5093150;28;20028;-91
2023/12/20 04:13:34;;;;;;;36.13;6.05;;;;;;;4.35;100.00;101473.63;5093007;28;20384;-91
2023/12/20 04:16:00;;;;;;;38.97;5.53;;;;;;;4.37;100.00;101472.47;5094070;28;20028;-90
2023/12/20 04:18:28;;;;;;;43.67;6.57;;;;;;;4.40;100.00;101484.75;5092818;28;20028;-90
2023/12/20 04:20:53;;;;;;;45.83;7.50;;;;;;;4.43;100.00;101473.69;5077027;28;20044;-91
2023/12/20 04:23:19;;;;;;;29.97;4.83;;;;;;;4.46;100.00;101473.38;5092775;28;20026;-91
2023/12/20 04:25:47;;;;;;;41.77;6.27;;;;;;;4.49;100.00;101472.22;5092547;28;20115;-89
2023/12/20 04:28:15;;;;;;;35.28;5.60;;;;;;;4.48;100.00;101476.72;5092629;28;20301;-91
2023/12/20 04:30:41;;;;;;;40.15;5.88;;;;;;;4.51;100.00;101470.19;5093168;28;20029;-91
2023/12/20 04:33:06;;;;;;;38.58;6.38;;;;;;;4.53;100.00;101485.19;5094071;28;20036;-90
2023/12/20 04:35:32;;;;;;;39.37;5.37;;;;;;;4.55;100.00;101482.31;5092650;28;20158;-90
2023/12/20 04:37:57;;;;;;;40.60;5.27;;;;;;;4.56;100.00;101475.94;5092978;28;20059;-91
2023/12/20 04:40:23;;;;;;;44.38;5.95;;;;;;;4.59;100.00;101472.09;5076220;28;20543;-91
2023/12/20 04:42:48;;;;;;;42.90;4.83;;;;;;;4.63;100.00;101476.97;5094694;28;20032;-91
2023/12/20 04:45:15;;;;;;;46.83;5.00;;;;;;;4.64;100.00;101472.47;5092817;28;20097;-90
2023/12/20 04:47:41;;;;;;;34.53;4.72;;;;;;;4.64;100.00;101473.28;5059184;28;20039;-90
2023/12/20 04:50:13;;;;;;;41.05;5.85;;;;;;;4.67;100.00;101475.66;5092415;28;20551;-90
2023/12/20 04:52:38;;;;;;;42.23;5.13;;;;;;;4.68;100.00;101474.66;5076888;28;20427;-90
2023/12/20 04:55:04;;;;;;;41.30;5.03;;;;;;;4.69;100.00;101478.19;5093585;28;20766;-91
2023/12/20 04:57:30;;;;;;;42.80;5.43;;;;;;;4.68;100.00;101479.16;5076311;28;20062;-90
2023/12/20 05:00:00;;;;;;;39.60;4.47;;;;;;;4.66;100.00;101486.56;5093972;28;20039;-91
2023/12/20 05:02:26;;;;;;;34.28;4.07;;;;;;;4.64;100.00;101473.28;5075453;28;20033;-90
2023/12/20 05:04:51;;;;;;;28.87;4.50;;;;;;;4.65;100.00;101464.22;5092702;28;20032;-91
2023/12/20 05:07:19;;;;;;;38.13;5.17;;;;;;;4.67;100.00;101461.38;5079805;28;20475;-90
2023/12/20 05:09:45;;;;;;;41.10;5.30;;;;;;;4.63;100.00;101462.69;5096128;28;20040;-90
2023/12/20 05:12:10;;;;;;;45.97;4.87;;;;;;;4.63;100.00;101460.84;5098921;28;20036;-91
2023/12/20 05:14:36;;;;;;;41.53;4.37;;;;;;;4.64;100.00;101465.22;5097581;28;20086;-91
2023/12/20 05:17:03;;;;;;;41.47;5.25;;;;;;;4.62;100.00;101450.25;5079735;28;20040;-91
2023/12/20 05:19:28;;;;;;;35.80;4.33;;;;;;;4.64;100.00;101453.66;5096832;28;20468;-91
2023/12/20 05:21:54;;;;;;;33.33;4.18;;;;;;;4.65;100.00;101458.00;5079408;28;20281;-91
2023/12/20 05:24:19;;;;;;;58.63;5.50;;;;;;;4.66;100.00;101457.00;5096467;28;20039;-90
2023/12/20 05:26:45;;;;;;;39.67;4.80;;;;;;;4.61;100.00;101454.81;5097106;28;20034;-91
2023/12/20 05:29:10;;;;;;;40.28;4.95;;;;;;;4.63;100.00;101460.00;5096268;28;20077;-90
2023/12/20 05:31:38;;;;;;;30.83;4.77;;;;;;;4.66;100.00;101462.38;5079340;28;20032;-91
2023/12/20 05:34:03;;;;;;;50.38;4.53;;;;;;;4.67;100.00;101467.59;5079325;28;20056;-90
2023/12/20 05:36:31;;;;;;;37.33;4.67;;;;;;;4.64;100.00;101469.78;5097448;28;20109;-91
2023/12/20 05:38:57;;;;;;;38.75;5.18;;;;;;;4.61;100.00;101464.72;5096273;28;20040;-91
2023/12/20 05:41:25;;;;;;;36.77;5.17;;;;;;;4.60;100.00;101469.22;5096056;28;20065;-91
2023/12/20 05:43:50;;;;;;;37.28;4.40;;;;;;;4.57;100.00;101462.31;5095736;28;20055;-91
2023/12/20 05:46:19;;;;;;;41.13;4.40;;;;;;;4.52;100.00;101464.66;5095726;28;20483;-91
2023/12/20 05:48:44;;;;;;;40.33;5.97;;;;;;;4.46;100.00;101462.63;5096057;28;20028;-91
2023/12/20 05:51:13;;;;;;;38.10;4.47;;;;;;;4.38;100.00;101467.94;5095756;28;20035;-91
2023/12/20 05:53:38;;;;;;;47.75;5.20;;;;;;;4.31;100.00;101467.75;5095839;28;20032;-90
2023/12/20 05:56:04;;;;;;;30.77;3.50;;;;;;;4.24;100.00;101466.69;5096128;28;20031;-91
2023/12/20 05:58:29;;;;;;;35.65;4.57;;;;;;;4.18;100.00;101478.09;5096051;28;20039;-91
2023/12/20 06:00:58;;;;;;;36.03;4.20;;;;;;;4.14;100.00;101474.84;5096780;28;20043;-90
2023/12/20 06:03:31;;;;;;;33.53;4.88;;;;;;;4.10;100.00;101476.16;5095331;28;20043;-91
2023/12/20 06:05:56;;;;;;;40.83;4.95;;;;;;;4.08;100.00;101471.97;5095613;28;20031;-91
2023/12/20 06:08:22;;;;;;;40.78;4.97;;;;;;;4.10;100.00;101502.19;5096780;28;20028;-90
2023/12/20 06:10:47;;;;;;;38.17;4.27;;;;;;;4.10;100.00;101488.75;5095403;28;20047;-90
2023/12/20 06:13:13;;;;;;;34.17;5.07;;;;;;;4.07;100.00;101481.03;5112434;28;20119;-90
2023/12/20 06:15:39;;;;;;;33.42;4.72;;;;;;;4.02;100.00;101481.50;5095399;28;20058;-90
2023/12/20 06:18:05;;;;;;;43.38;5.82;;;;;;;4.02;100.00;101481.50;5095812;28;20020;-90
2023/12/20 06:20:34;;;;;;;44.90;5.00;;;;;;;4.02;100.00;101479.63;5094969;28;20039;-90
2023/12/20 06:22:59;;;;;;;40.43;5.27;;;;;;;3.97;100.00;101500.75;5095588;28;20032;-91
2023/12/20 06:25:25;;;;;;;37.88;4.38;;;;;;;3.92;100.00;101494.16;5096731;28;20043;-90
2023/12/20 06:27:50;;;;;;;39.47;6.30;;;;;;;3.89;100.00;101494.47;5095947;28;20051;-90
2023/12/20 06:30:16;;;;;;;38.67;6.10;;;;;;;3.88;100.00;101492.78;5094738;28;20032;-91
2023/12/20 06:32:42;;;;;;;31.98;5.35;;;;;;;3.82;100.00;101484.38;5094961;28;20024;-90
2023/12/20 06:35:09;;;;;;;44.70;6.33;;;;;;;3.82;100.00;101480.81;5094780;28;20095;-90
2023/12/20 06:37:42;;;;;;;44.17;5.88;;;;;;;3.84;100.00;101487.72;5095361;28;20540;-89
2023/12/20 06:40:10;;;;;;;49.08;6.72;;;;;;;3.84;100.00;101477.00;5079334;28;20361;-91
2023/12/20 06:42:38;;;;;;;41.25;5.57;;;;;;;3.88;100.00;101480.19;5096256;28;20115;-90
2023/12/20 06:45:06;;;;;;;42.13;5.87;;;;;;;3.86;100.00;101469.63;5095018;28;20092;-90
2023/12/20 06:47:32;;;;;;;48.75;6.50;;;;;;;3.90;100.00;101472.84;5094684;28;20328;-90
2023/12/20 06:49:58;;;;;;;44.10;5.85;;;;;;;3.89;100.00;101473.84;5096121;28;20476;-90
2023/12/20 06:52:23;;;;;;;37.97;5.93;;;;;;;3.92;100.00;101491.47;5095448;28;20153;-91
2023/12/20 06:54:51;;;;;;;36.17;6.33;;;;;;;3.93;100.00;101475.22;5094672;28;20027;-90
2023/12/20 06:57:19;;;;;;;33.15;5.22;;;;;;;3.95;100.00;101475.06;5095701;28;20460;-90
2023/12/20 06:59:47;;;;;;;49.13;5.80;;;;;;;3.96;100.00;101469.53;5094364;28;20044;-92
2023/12/20 07:02:20;;;;;;;44.47;6.57;;;;;;;3.92;100.00;101472.69;5094356;28;20057;-91
2023/12/20 07:04:45;;;;;;;38.05;5.93;;;;;;;3.96;100.00;101484.81;5062136;28;20453;-90
2023/12/20 07:07:11;;;;;;;40.90;6.77;;;;;;;3.96;100.00;101469.53;5094022;28;20020;-91
2023/12/20 07:09:40;;;;;;;44.93;5.67;;;;;;;3.99;100.00;101477.28;5094115;28;20020;-90
2023/12/20 07:12:11;;;;;;;33.50;5.18;;;;;;;3.97;100.00;101481.09;5095280;28;20040;-91
2023/12/20 07:14:36;;;;;;;37.13;5.25;;;;;;;3.91;100.00;101476.38;5095141;28;20028;-91
2023/12/20 07:17:07;;;;;;;36.77;5.50;;;;;;;3.88;100.00;101474.81;5094596;28;20066;-90
2023/12/20 07:19:37;;;;;;;35.35;5.00;;;;;;;3.99;100.00;101476.44;5095705;28;20110;-90
2023/12/20 07:22:06;;;;;;;45.72;7.45;;;;;;;4.00;100.00;101483.47;5078172;28;20036;-90
2023/12/20 07:24:35;;;;;;;35.53;7.13;;;;;;;4.04;100.00;101466.91;5096154;28;20066;-90
2023/12/20 07:27:06;;;;;;;33.30;5.73;;;;;;;4.07;100.00;101484.53;5094437;28;20024;-90
2023/12/20 07:29:31;;;;;;;33.08;5.95;;;;;;;4.11;100.00;101475.16;5093701;28;20773;-91
2023/12/20 07:31:59;;;;;;;42.25;5.47;;;;;;;4.11;100.00;101474.34;5094942;28;20032;-90
2023/12/20 07:34:27;;;;;;;39.03;5.40;;;;;;;4.14;100.00;101482.06;5094062;28;20032;-90
2023/12/20 07:37:04;;;;;;;34.80;5.78;;;;;;;4.17;100.00;101471.00;5096413;28;20052;-90
2023/12/20 07:39:39;;;;;;;31.83;5.35;;;;;;;4.20;100.00;101468.00;5078117;28;20148;-91
2023/12/20 07:42:24;;;;;;;;;;;;;;;;;;;;;
2023/12/20 07:45:05;;;;;;;38.00;5.90;;;;;;;4.28;100.00;101473.44;5095826;28;20032;-90
2023/12/20 07:47:33;;;;;;;37.53;4.63;;;;;;;4.28;100.00;101472.59;5078387;28;20040;-90
2023/12/20 07:50:04;;;;;;;35.42;4.78;;;;;;;4.30;100.00;101463.38;5094850;28;20081;-91
2023/12/20 07:52:40;;;;;;;32.83;5.45;;;;;;;4.34;100.00;101459.38;5093976;28;20034;-90
2023/12/20 07:55:14;;;;;;;35.58;4.75;;;;;;;4.38;100.00;101466.13;5094153;28;20028;-90
2023/12/20 07:57:40;;;;;;;27.55;4.10;;;;;;;4.43;100.00;101454.03;5094496;28;20024;-90
2023/12/20 08:00:17;;;;;;;35.83;5.43;;;;;;;4.45;100.00;101468.16;5076512;28;20085;-91
2023/12/20 08:02:48;;;;;;;32.70;4.60;;;;;;;4.43;100.00;101472.84;5094053;28;20123;-90
2023/12/20 08:05:26;;;;;;;;;;;;;;;;;;;;;
2023/12/20 08:07:54;;;;;;;29.17;4.85;;;;;;;4.50;100.00;101490.00;5094221;28;20280;-90
2023/12/20 08:10:20;;;;;;;28.65;4.50;;;;;;;4.54;100.00;101494.91;5093397;28;20027;-90
2023/12/20 08:12:55;;;;;;;34.10;4.70;;;;;;;4.55;100.00;101493.91;5095175;28;20479;-90
2023/12/20 08:15:56;;;;;;;35.10;4.37;;;;;;;4.62;100.00;101475.31;5093853;28;20086;-90
2023/12/20 08:18:24;;;;;;;27.95;3.53;;;;;;;4.62;100.00;101480.69;5095207;28;20024;-90
2023/12/20 08:20:52;;;;;;;24.73;4.70;;;;;;;4.63;100.00;101479.66;5078519;28;20369;-91
2023/12/20 08:23:20;;;;;;;34.75;4.85;;;;;;;4.65;100.00;101490.25;5093668;28;20039;-91
2023/12/20 08:25:50;;;;;;;34.03;5.05;;;;;;;4.71;100.00;101486.91;5095274;28;20475;-91
2023/12/20 08:28:23;;;;;;;23.23;3.60;;;;;;;4.76;100.00;101481.91;5077536;28;20036;-90
2023/12/20 08:31:06;;;;;;;24.73;3.78;;;;;;;4.80;100.00;101491.34;5076433;28;20024;-90
2023/12/20 08:33:35;;;;;;;26.55;4.78;;;;;;;4.86;100.00;101500.63;5094462;28;20054;-91
2023/12/20 08:36:05;;;;;;;24.80;3.83;;;;;;;4.92;100.00;101489.22;5093505;28;20159;-92
2023/12/20 08:38:33;;;;;;;39.30;5.22;;;;;;;4.95;100.00;101491.56;5093816;28;20082;-91
2023/12/20 08:41:07;;;;;;;21.40;3.13;;;;;;;5.04;100.00;101501.34;5075995;28;20494;-91
2023/12/20 08:43:35;;;;;;;24.02;3.50;;;;;;;5.07;100.00;101492.09;5093265;28;20024;-91
2023/12/20 08:46:06;;;;;;;23.05;4.03;;;;;;;5.17;100.00;101483.91;5092578;28;20069;-90
2023/12/20 08:48:32;;;;;;;15.85;3.05;;;;;;;5.16;100.00;101472.28;5077182;28;20357;-91
2023/12/20 08:50:59;;;;;;;24.60;4.23;;;;;;;5.19;100.00;101458.50;5093444;28;20024;-92
2023/12/20 08:53:34;;;;;;;23.10;3.55;;;;;;;5.23;100.00;101456.34;5092256;28;20119;-90
2023/12/20 08:56:04;;;;;;;24.75;4.47;;;;;;;5.23;100.00;101484.09;5092897;28;20479;-90
2023/12/20 08:58:30;;;;;;;23.00;3.63;;;;;;;5.24;100.00;101449.94;5075387;28;20032;-91
2023/12/20 09:00:57;;;;;;;20.73;3.80;;;;;;;5.25;100.00;101457.00;5092482;28;20057;-91
2023/12/20 09:03:30;;;;;;;24.15;4.15;;;;;;;5.25;100.00;101449.75;5093297;28;20046;-93
2023/12/20 09:05:58;;;;;;;18.57;3.10;;;;;;;5.22;100.00;101468.94;5092539;28;20028;-91
2023/12/20 09:08:23;;;;;;;28.92;4.72;;;;;;;5.24;100.00;101453.50;5092474;28;20306;-90
2023/12/20 09:10:58;;;;;;;26.52;3.50;;;;;;;5.26;100.00;101466.78;5092505;28;20121;-90
2023/12/20 09:13:34;;;;;;;25.00;3.77;;;;;;;5.29;100.00;101465.59;5093892;28;20039;-91
2023/12/20 09:16:04;;;;;;;22.73;3.53;;;;;;;5.30;100.00;101460.06;5092880;28;20405;-90
2023/12/20 09:18:31;;;;;;;20.50;3.58;;;;;;;5.29;100.00;101471.81;5092709;28;20039;-90
2023/12/20 09:20:59;;;;;;;17.60;2.88;;;;;;;5.32;100.00;101465.28;5092692;28;20478;-91
2023/12/20 09:23:27;;;;;;;26.38;3.47;;;;;;;5.30;100.00;101459.19;5092412;28;20115;-90
2023/12/20 09:25:53;;;;;;;20.93;3.30;;;;;;;5.35;100.00;101463.09;5092564;28;20044;-90
2023/12/20 09:28:23;;;;;;;14.52;2.50;;;;;;;5.38;100.00;101475.38;5092629;28;20035;-90
2023/12/20 09:30:53;;;;;;;22.95;3.15;;;;;;;5.39;100.00;101490.53;5093219;28;20032;-91
2023/12/20 09:33:18;;;;;;;21.02;3.42;;;;;;;5.42;100.00;101464.09;5093161;28;20409;-90
2023/12/20 09:35:47;;;;;;;19.50;2.97;;;;;;;5.43;100.00;101464.94;5092834;28;20136;-91
2023/12/20 09:38:17;;;;;;;24.70;3.60;;;;;;;5.49;100.00;101461.56;5095505;28;20033;-91
2023/12/20 09:40:45;;;;;;;17.30;2.70;;;;;;;5.54;100.00;101436.88;5092543;28;20034;-90
2023/12/20 09:43:41;;;;;;;16.98;2.35;;;;;;;5.59;100.00;101447.97;5092639;28;20480;-91
2023/12/20 09:46:11;;;;;;;17.67;3.08;;;;;;;5.53;100.00;101435.19;5092744;28;20532;-91
2023/12/20 09:48:37;;;;;;;20.80;3.08;;;;;;;5.59;100.00;101446.09;5092026;28;20028;-91
2023/12/20 09:51:08;;;;;;;11.77;2.80;;;;;;;5.59;100.00;101451.47;5091984;28;20032;-90
2023/12/20 09:53:36;;;;;;;20.03;2.40;;;;;;;5.61;100.00;101452.19;5096538;28;20039;-91
2023/12/20 09:56:06;;;;;;;17.65;2.72;;;;;;;5.70;100.00;101444.09;5095956;28;20020;-90
2023/12/20 09:58:35;;;;;;;15.05;2.83;;;;;;;5.71;100.00;101456.53;5095702;28;20031;-90
2023/12/20 10:01:04;;;;;;;15.82;2.63;;;;;;;5.71;100.00;101446.59;5097407;28;20028;-91
2023/12/20 10:03:36;;;;;;;21.15;2.88;;;;;;;5.75;100.00;101453.34;5095586;28;20060;-92
2023/12/20 10:06:04;;;;;;;17.47;2.53;;;;;;;5.83;100.00;101457.91;5096545;28;20032;-90
2023/12/20 10:08:32;;;;;;;22.13;3.03;;;;;;;5.84;100.00;101437.19;5094997;28;20071;-90
2023/12/20 10:11:02;;;;;;;13.95;2.30;;;;;;;5.87;100.00;101459.22;5095316;28;20422;-90
2023/12/20 10:13:30;;;;;;;15.90;2.38;;;;;;;5.88;100.00;101443.94;5096009;28;20077;-91
2023/12/20 10:15:59;;;;;;;16.58;2.40;;;;;;;5.96;100.00;101455.53;5096046;28;20087;-91
2023/12/20 10:18:27;;;;;;;24.20;3.00;;;;;;;5.99;100.00;101437.38;5094979;28;20036;-91
2023/12/20 10:20:56;;;;;;;17.67;2.38;;;;;;;6.03;100.00;101433.34;5095555;28;20062;-91
2023/12/20 10:23:31;;;;;;;19.00;3.40;;;;;;;6.07;100.00;101448.97;5094984;28;20081;-91
2023/12/20 10:26:06;;;;;;;17.23;2.50;;;;;;;6.12;100.00;101438.50;5095884;28;20024;-91
2023/12/20 10:28:35;;;;;;;22.13;3.03;;;;;;;6.12;100.00;101435.81;5095347;28;20020;-91
2023/12/20 10:31:00;;;;;;;16.63;2.50;;;;;;;6.16;100.00;101428.25;5094864;28;20494;-91
2023/12/20 10:33:54;;;;;;;16.30;2.22;;;;;;;6.28;100.00;101436.81;5096389;28;20107;-91
2023/12/20 10:36:19;;;;;;;23.23;3.42;;;;;;;6.20;100.00;101448.47;5094797;28;20051;-91
2023/12/20 10:38:49;;;;;;;22.80;2.93;;;;;;;6.21;100.00;101430.44;5096216;28;20028;-91
2023/12/20 10:41:20;;;;;;;23.23;3.55;;;;;;;6.21;100.00;101439.34;5095060;28;20035;-91
2023/12/20 10:43:47;;;;;;;13.77;2.45;;;;;;;6.27;100.00;101433.25;5094768;28;20468;-91
2023/12/20 10:46:12;;;;;;;18.77;2.67;;;;;;;6.22;100.00;101426.72;5094557;28;20032;-91
2023/12/20 10:48:39;;;;;;;15.25;2.47;;;;;;;6.27;100.00;101414.38;5078003;28;20123;-91
2023/12/20 10:51:12;;;;;;;15.80;3.00;;;;;;;6.29;100.00;101416.94;5094594;28;20038;-92
2023/12/20 10:53:40;;;;;;;23.77;2.70;;;;;;;6.34;100.00;101413.72;5095684;28;20036;-90
2023/12/20 10:56:13;;;;;;;19.13;3.60;;;;;;;6.27;100.00;101418.94;5094911;28;20020;-91
2023/12/20 10:58:44;;;;;;;14.45;2.28;;;;;;;6.30;100.00;101418.59;5094952;28;20470;-91
2023/12/20 11:01:12;;;;;;;19.83;2.55;;;;;;;6.28;100.00;101412.56;5094840;28;20039;-91
2023/12/20 11:03:43;;;;;;;12.38;2.85;;;;;;;6.29;100.00;101398.91;5094149;28;20040;-91
2023/12/20 11:06:35;;;;;;;17.45;3.03;;;;;;;6.26;100.00;101383.09;5094448;28;20031;-91
2023/12/20 11:09:27;;;;;;;14.45;2.88;;;;;;;6.27;100.00;101395.53;5095515;28;20490;-91
2023/12/20 11:12:10;;;;;;;13.55;2.42;;;;;;;6.26;100.00;101406.47;5094216;28;20114;-91
2023/12/20 11:14:45;;;;;;;18.48;2.72;;;;;;;6.24;100.00;101393.19;5095549;28;20077;-90
2023/12/20 11:17:17;;;;;;;20.20;3.45;;;;;;;6.15;100.00;101396.91;5093846;28;20025;-91
2023/12/20 11:19:57;;;;;;;19.30;2.90;;;;;;;6.07;100.00;101397.78;5094506;28;20032;-91
2023/12/20 11:22:30;;;;;;;18.92;2.53;;;;;;;5.92;100.00;101392.25;5094241;28;20069;-91
2023/12/20 11:25:17;;;;;;;15.95;2.22;;;;;;;5.91;100.00;101414.78;5093654;28;20169;-90